Combe Martin, United Kingdom
Current Conditions -  °F | °C
As of 1:50 PM on Thursday 29 Jan 2015 (Local Time) from EGDX Reporting Station
Rain Showers Rain Showers  
Wind Chill: 28°   Ceiling: 3500
Heat Index: 37°   Visibility: 6mi
Dew Point: 34°   Wind: 17mph
Humidity: 87%   Direction: 310°NW
Pressure: 28.97"   Gusts: NA
Location:  51.2°N, 4.02°W
Report Text: EGDX 291350Z 31015KT 9999 -SHRA FEW010 SCT023CB BKN035 03/01 Q0981 WHT
Loading
Personal Weather Stations






























Interactive Weather Map New forecast layout! Learn more

10-Day Weather Forecast

Advertisements
Track Severe Weather on mobile